Beltdiep — PBYF — position and weather

sailwx.info

Track history (hours):
 
Tides and Currents Weather Stations Pressure Air Temp Water Temp Dewpoint Dewpoint Depression Visibility Wind Speed Wind Dir Waves Ship Positions

Beltdiep

Last reported at 2014-Jul-24 06:33 UTC. Time now 2014-Jul-24 12:23 UTC.
Position N 57°58' E 018°21'.

Length 107 m; draft 5.4 m.

Type: Cargo ship. MMSI: 246671000.

Date/timePositionNaut miles runAvg speedWind from/ knotsBaromVisibWave heightAir tempDewpointWater temp
2014-Jul-24 06:33N 57°58' E 018°21'9 9.1
2014-Jul-24 05:33N 57°50' E 018°13'9 9.2
2014-Jul-24 04:33N 57°42' E 018°05'9 8.7
2014-Jul-24 03:33N 57°35' E 017°56'9 9.0
2014-Jul-24 02:33N 57°27' E 017°47'9 9.0
2014-Jul-24 01:33N 57°19' E 017°41'9 9.1
2014-Jul-24 00:33N 57°10' E 017°35'9 9.1
2014-Jul-23 23:33N 57°02' E 017°29'9 9.0
2014-Jul-23 22:33N 56°53' E 017°23'9 8.8
2014-Jul-23 21:33N 56°45' E 017°17'9 8.7
2014-Jul-23 20:30N 56°37' E 017°11'8 8.7
2014-Jul-23 19:33N 56°29' E 017°06'9 8.8
2014-Jul-23 18:33N 56°21' E 017°00'10 8.6
2014-Jul-23 17:23N 56°11' E 016°54'7 8.6
2014-Jul-23 16:33N 56°04' E 016°49'10 8.4
2014-Jul-23 15:21N 55°59' E 016°34'7 8.7
2014-Jul-23 14:33N 55°56' E 016°23'9 8.8
2014-Jul-23 13:32N 55°52' E 016°09'8 8.5
2014-Jul-23 12:33N 55°47' E 015°56'8 8.5
2014-Jul-23 11:33N 55°43' E 015°43'8 8.5
2014-Jul-23 10:33N 55°39' E 015°30'9 8.4
2014-Jul-23 09:33N 55°35' E 015°16'8 8.2
2014-Jul-23 08:33N 55°32' E 015°04'8 8.4
2014-Jul-23 07:33N 55°27' E 014°51'9 9.0
2014-Jul-23 06:33N 55°23' E 014°37'9 8.7
2014-Jul-23 05:33N 55°16' E 014°28'8 8.5
2014-Jul-23 04:33N 55°09' E 014°19'9 8.5
2014-Jul-23 03:32N 55°02' E 014°10'8 8.3
2014-Jul-23 02:33N 54°58' E 013°58'9 8.6
2014-Jul-23 01:33N 54°56' E 013°43'9 8.8
2014-Jul-23 00:33N 54°53' E 013°29'9 8.7
2014-Jul-22 23:33N 54°50' E 013°14'9 8.7
2014-Jul-22 22:33N 54°48' E 012°60'8 8.6
2014-Jul-22 21:33N 54°45' E 012°46'8 8.4
2014-Jul-22 20:33N 54°41' E 012°33'8 8.2
2014-Jul-22 19:34N 54°36' E 012°22'8 7.8
2014-Jul-22 18:34N 54°29' E 012°15'7 7.4
2014-Jul-22 17:33N 54°24' E 012°06'8 8.4
2014-Jul-22 16:33N 54°25' E 011°51'8 8.2
2014-Jul-22 15:33N 54°27' E 011°38'9 8.6
2014-Jul-22 14:33N 54°31' E 011°25'8 7.6
2014-Jul-22 13:33N 54°34' E 011°13'8 7.9
2014-Jul-22 12:31N 54°35' E 010°59'17 8.6
2014-Jul-22 10:33N 54°32' E 010°30'8 8.1
2014-Jul-22 09:33N 54°29' E 010°17'26 5.9
2014-Jul-22 05:06N 54°16' E 009°38'13 8.0
2014-Jul-22 03:26N 54°08' E 009°20'7 7.9
2014-Jul-22 02:31N 54°01' E 009°18'7 7.7
2014-Jul-22 01:33N 53°54' E 009°10'3 2.5
2014-Jul-22 00:33N 53°53' E 009°07'6 5.7
2014-Jul-21 23:33N 53°51' E 008°58'7 7.1
2014-Jul-21 22:34N 53°51' E 008°46'8 8.1
2014-Jul-21 21:34N 53°57' E 008°37'8 8.4
2014-Jul-21 20:34N 53°59' E 008°23'2 8.5
2014-Jul-21 20:18N 53°59' E 008°20'6 8.5
2014-Jul-21 19:34N 53°60' E 008°09'9 8.5
2014-Jul-21 18:33N 53°58' E 007°55'1210.2
2014-Jul-21 17:22N 53°55' E 007°35'1010.4
2014-Jul-21 16:21N 53°52' E 007°18'4110.7
2014-Jul-21 12:32N 53°43' E 006°11'1010.0
2014-Jul-21 11:30N 53°40' E 005°54'9 9.6
2014-Jul-21 10:34N 53°37' E 005°40'9 9.1
2014-Jul-21 09:33N 53°33' E 005°25'9 8.8
2014-Jul-21 08:34N 53°30' E 005°12'9 8.7
2014-Jul-21 07:33N 53°27' E 004°58'9 8.6
2014-Jul-21 06:33N 53°24' E 004°45'42 7.9
2014-Jul-21 01:14N 52°47' E 004°11'27 9.3
2014-Jul-20 22:21N 52°29' E 003°39'64 9.3
2014-Jul-20 15:28N 51°40' E 002°30'7 7.5
2014-Jul-20 14:32N 51°35' E 002°23'7 7.3
2014-Jul-20 13:33N 51°29' E 002°16'7 7.5
2014-Jul-20 12:33N 51°23' E 002°11'8 8.2
2014-Jul-20 11:33N 51°15' E 002°05'8 8.4
2014-Jul-20 10:34N 51°10' E 001°55'9 8.9
2014-Jul-20 09:33N 51°05' E 001°43'10 9.7
2014-Jul-20 08:30N 50°57' E 001°33'43 9.8
2014-Jul-20 04:05N 50°28' E 000°41'510.3
2014-Jul-20 03:33N 50°27' E 000°33'58 9.7
2014-Jul-19 21:32N 50°11' W 000°55'  
2014-Jul-15 19:22N 39°02' W 009°50'7 7.5
2014-Jul-15 18:30N 38°55' W 009°51'18 7.6
2014-Jul-15 16:08N 38°37' W 009°50'8 7.8
2014-Jul-15 15:05N 38°29' W 009°47'4 7.6
2014-Jul-15 14:33N 38°25' W 009°46'8 7.4
2014-Jul-15 13:31N 38°18' W 009°44'7 7.4
2014-Jul-15 12:33N 38°11' W 009°42'7 7.1
2014-Jul-15 11:33N 38°04' W 009°40'8 7.2
2014-Jul-15 10:29N 37°56' W 009°37'7 6.9
2014-Jul-15 09:32N 37°50' W 009°35'7 6.7
2014-Jul-15 08:33N 37°44' W 009°33'7 6.7
2014-Jul-15 07:32N 37°37' W 009°31'7 7.1
2014-Jul-15 06:32N 37°30' W 009°29'15 7.1
2014-Jul-15 04:22N 37°15' W 009°26'7 7.2
2014-Jul-15 03:25N 37°08' W 009°24'8 7.7
2014-Jul-15 02:25N 37°01' W 009°21'7 7.6
2014-Jul-15 01:31N 36°54' W 009°19'7 7.6
2014-Jul-15 00:33N 36°49' W 009°13'15 7.3
2014-Jul-14 22:29N 36°42' W 008°56'7 8.0
2014-Jul-14 21:33N 36°39' W 008°47'8 8.2
2014-Jul-14 20:33N 36°37' W 008°38'8 7.9
2014-Jul-14 19:33N 36°35' W 008°28'8 8.1
2014-Jul-14 18:33N 36°32' W 008°19'8 8.2
2014-Jul-14 17:33N 36°29' W 008°09'8 8.3
2014-Jul-14 16:33N 36°26' W 007°59'8 8.3
2014-Jul-14 15:33N 36°24' W 007°49'9 8.6
2014-Jul-14 14:33N 36°22' W 007°39'9 9.1
2014-Jul-14 13:33N 36°19' W 007°28'9 9.3
2014-Jul-14 12:33N 36°16' W 007°17'  
Track history (hours):
 
Tides and Currents Weather Stations Pressure Air Temp Water Temp Dewpoint Dewpoint Depression Visibility Wind Speed Wind Dir Waves Ship Positions

Beltdiep

Last reported at 2014-Jul-24 06:33 UTC. Time now 2014-Jul-24 12:23 UTC.
Position N 57°58' E 018°21'.

Length 107 m; draft 5.4 m.

Type: Cargo ship. MMSI: 246671000.

Date/timePositionNaut miles runAvg speedWind from/ knotsBaromVisibWave heightAir tempDewpointWater temp
2014-Jul-24 06:33N 57°58' E 018°21'9 9.1
2014-Jul-24 05:33N 57°50' E 018°13'9 9.2
2014-Jul-24 04:33N 57°42' E 018°05'9 8.7
2014-Jul-24 03:33N 57°35' E 017°56'9 9.0
2014-Jul-24 02:33N 57°27' E 017°47'9 9.0
2014-Jul-24 01:33N 57°19' E 017°41'9 9.1
2014-Jul-24 00:33N 57°10' E 017°35'9 9.1
2014-Jul-23 23:33N 57°02' E 017°29'9 9.0
2014-Jul-23 22:33N 56°53' E 017°23'9 8.8
2014-Jul-23 21:33N 56°45' E 017°17'9 8.7
2014-Jul-23 20:30N 56°37' E 017°11'8 8.7
2014-Jul-23 19:33N 56°29' E 017°06'9 8.8
2014-Jul-23 18:33N 56°21' E 017°00'10 8.6
2014-Jul-23 17:23N 56°11' E 016°54'7 8.6
2014-Jul-23 16:33N 56°04' E 016°49'10 8.4
2014-Jul-23 15:21N 55°59' E 016°34'7 8.7
2014-Jul-23 14:33N 55°56' E 016°23'9 8.8
2014-Jul-23 13:32N 55°52' E 016°09'8 8.5
2014-Jul-23 12:33N 55°47' E 015°56'8 8.5
2014-Jul-23 11:33N 55°43' E 015°43'8 8.5
2014-Jul-23 10:33N 55°39' E 015°30'9 8.4
2014-Jul-23 09:33N 55°35' E 015°16'8 8.2
2014-Jul-23 08:33N 55°32' E 015°04'8 8.4
2014-Jul-23 07:33N 55°27' E 014°51'9 9.0
2014-Jul-23 06:33N 55°23' E 014°37'9 8.7
2014-Jul-23 05:33N 55°16' E 014°28'8 8.5
2014-Jul-23 04:33N 55°09' E 014°19'9 8.5
2014-Jul-23 03:32N 55°02' E 014°10'8 8.3
2014-Jul-23 02:33N 54°58' E 013°58'9 8.6
2014-Jul-23 01:33N 54°56' E 013°43'9 8.8
2014-Jul-23 00:33N 54°53' E 013°29'9 8.7
2014-Jul-22 23:33N 54°50' E 013°14'9 8.7
2014-Jul-22 22:33N 54°48' E 012°60'8 8.6
2014-Jul-22 21:33N 54°45' E 012°46'8 8.4
2014-Jul-22 20:33N 54°41' E 012°33'8 8.2
2014-Jul-22 19:34N 54°36' E 012°22'8 7.8
2014-Jul-22 18:34N 54°29' E 012°15'7 7.4
2014-Jul-22 17:33N 54°24' E 012°06'8 8.4
2014-Jul-22 16:33N 54°25' E 011°51'8 8.2
2014-Jul-22 15:33N 54°27' E 011°38'9 8.6
2014-Jul-22 14:33N 54°31' E 011°25'8 7.6
2014-Jul-22 13:33N 54°34' E 011°13'8 7.9
2014-Jul-22 12:31N 54°35' E 010°59'17 8.6
2014-Jul-22 10:33N 54°32' E 010°30'8 8.1
2014-Jul-22 09:33N 54°29' E 010°17'26 5.9
2014-Jul-22 05:06N 54°16' E 009°38'13 8.0
2014-Jul-22 03:26N 54°08' E 009°20'7 7.9
2014-Jul-22 02:31N 54°01' E 009°18'7 7.7
2014-Jul-22 01:33N 53°54' E 009°10'3 2.5
2014-Jul-22 00:33N 53°53' E 009°07'6 5.7
2014-Jul-21 23:33N 53°51' E 008°58'7 7.1
2014-Jul-21 22:34N 53°51' E 008°46'8 8.1
2014-Jul-21 21:34N 53°57' E 008°37'8 8.4
2014-Jul-21 20:34N 53°59' E 008°23'2 8.5
2014-Jul-21 20:18N 53°59' E 008°20'6 8.5
2014-Jul-21 19:34N 53°60' E 008°09'9 8.5
2014-Jul-21 18:33N 53°58' E 007°55'1210.2
2014-Jul-21 17:22N 53°55' E 007°35'1010.4
2014-Jul-21 16:21N 53°52' E 007°18'4110.7
2014-Jul-21 12:32N 53°43' E 006°11'1010.0
2014-Jul-21 11:30N 53°40' E 005°54'9 9.6
2014-Jul-21 10:34N 53°37' E 005°40'9 9.1
2014-Jul-21 09:33N 53°33' E 005°25'9 8.8
2014-Jul-21 08:34N 53°30' E 005°12'9 8.7
2014-Jul-21 07:33N 53°27' E 004°58'9 8.6
2014-Jul-21 06:33N 53°24' E 004°45'42 7.9
2014-Jul-21 01:14N 52°47' E 004°11'27 9.3
2014-Jul-20 22:21N 52°29' E 003°39'64 9.3
2014-Jul-20 15:28N 51°40' E 002°30'7 7.5
2014-Jul-20 14:32N 51°35' E 002°23'7 7.3
2014-Jul-20 13:33N 51°29' E 002°16'7 7.5
2014-Jul-20 12:33N 51°23' E 002°11'8 8.2
2014-Jul-20 11:33N 51°15' E 002°05'8 8.4
2014-Jul-20 10:34N 51°10' E 001°55'9 8.9
2014-Jul-20 09:33N 51°05' E 001°43'10 9.7
2014-Jul-20 08:30N 50°57' E 001°33'43 9.8
2014-Jul-20 04:05N 50°28' E 000°41'510.3
2014-Jul-20 03:33N 50°27' E 000°33'58 9.7
2014-Jul-19 21:32N 50°11' W 000°55'  
2014-Jul-15 19:22N 39°02' W 009°50'7 7.5
2014-Jul-15 18:30N 38°55' W 009°51'18 7.6
2014-Jul-15 16:08N 38°37' W 009°50'8 7.8
2014-Jul-15 15:05N 38°29' W 009°47'4 7.6
2014-Jul-15 14:33N 38°25' W 009°46'8 7.4
2014-Jul-15 13:31N 38°18' W 009°44'7 7.4
2014-Jul-15 12:33N 38°11' W 009°42'7 7.1
2014-Jul-15 11:33N 38°04' W 009°40'8 7.2
2014-Jul-15 10:29N 37°56' W 009°37'7 6.9
2014-Jul-15 09:32N 37°50' W 009°35'7 6.7
2014-Jul-15 08:33N 37°44' W 009°33'7 6.7
2014-Jul-15 07:32N 37°37' W 009°31'7 7.1
2014-Jul-15 06:32N 37°30' W 009°29'15 7.1
2014-Jul-15 04:22N 37°15' W 009°26'7 7.2
2014-Jul-15 03:25N 37°08' W 009°24'8 7.7
2014-Jul-15 02:25N 37°01' W 009°21'7 7.6
2014-Jul-15 01:31N 36°54' W 009°19'7 7.6
2014-Jul-15 00:33N 36°49' W 009°13'15 7.3
2014-Jul-14 22:29N 36°42' W 008°56'7 8.0
2014-Jul-14 21:33N 36°39' W 008°47'8 8.2
2014-Jul-14 20:33N 36°37' W 008°38'8 7.9
2014-Jul-14 19:33N 36°35' W 008°28'8 8.1
2014-Jul-14 18:33N 36°32' W 008°19'8 8.2
2014-Jul-14 17:33N 36°29' W 008°09'8 8.3
2014-Jul-14 16:33N 36°26' W 007°59'8 8.3
2014-Jul-14 15:33N 36°24' W 007°49'9 8.6
2014-Jul-14 14:33N 36°22' W 007°39'9 9.1
2014-Jul-14 13:33N 36°19' W 007°28'9 9.3
2014-Jul-14 12:33N 36°16' W 007°17'  

Dump ship's entire track history